createdAt,value
2022-11-28T00:00:52.384Z,0.19
2022-11-28T00:04:06.821Z,0.13
2022-11-28T00:07:14.349Z,0.08
2022-11-28T00:10:19.958Z,0.03
2022-11-28T00:13:25.481Z,-0.02
2022-11-28T00:16:31.027Z,-0.06
2022-11-28T00:19:36.354Z,-0.11
2022-11-28T00:22:42.644Z,-0.15
2022-11-28T00:25:47.972Z,-0.20
2022-11-28T00:28:53.627Z,-0.26
2022-11-28T00:31:59.145Z,-0.31
2022-11-28T00:35:04.699Z,-0.34
2022-11-28T00:38:11.383Z,-0.38
2022-11-28T00:41:17.794Z,-0.41
2022-11-28T00:44:23.250Z,-0.43
2022-11-28T00:47:28.725Z,-0.45
2022-11-28T00:50:34.108Z,-0.47
2022-11-28T00:53:40.498Z,-0.50
2022-11-28T00:56:45.950Z,-0.54
2022-11-28T00:59:51.255Z,-0.60
2022-11-28T01:02:56.731Z,-0.64
2022-11-28T01:06:02.188Z,-0.68
2022-11-28T01:09:08.328Z,-0.72
2022-11-28T01:12:15.075Z,-0.76
2022-11-28T01:15:20.542Z,-0.79
2022-11-28T01:18:25.806Z,-0.83
2022-11-28T01:21:32.806Z,-0.86
2022-11-28T01:24:38.300Z,-0.87
2022-11-28T01:27:43.632Z,-0.88
2022-11-28T01:30:49.102Z,-0.89
2022-11-28T01:33:54.551Z,-0.91
2022-11-28T01:37:01.014Z,-0.93
2022-11-28T01:40:07.365Z,-0.96
2022-11-28T01:43:12.737Z,-0.98
2022-11-28T01:46:18.530Z,-1.01
2022-11-28T01:49:25.702Z,-1.05
2022-11-28T01:52:31.229Z,-1.07
2022-11-28T01:55:39.066Z,-1.11
2022-11-28T01:58:46.732Z,-1.15
2022-11-28T02:01:53.483Z,-1.19
2022-11-28T02:04:59.352Z,-1.24
2022-11-28T02:08:04.862Z,-1.27
2022-11-28T02:11:21.785Z,-1.29
2022-11-28T02:14:35.394Z,-1.30
2022-11-28T02:17:48.969Z,-1.30
2022-11-28T02:21:05.079Z,-1.32
2022-11-28T02:24:29.763Z,-1.31
2022-11-28T02:27:42.282Z,-1.31
2022-11-28T02:30:53.520Z,-1.31
2022-11-28T02:34:00.909Z,-1.31
2022-11-28T02:37:08.677Z,-1.30
2022-11-28T02:40:18.163Z,-1.28
2022-11-28T02:43:25.129Z,-1.28
2022-11-28T02:46:35.186Z,-1.30
2022-11-28T02:49:45.456Z,-1.34
2022-11-28T02:52:52.488Z,-1.37
2022-11-28T02:55:58.363Z,-1.41
2022-11-28T02:59:03.721Z,-1.45
2022-11-28T03:02:14.792Z,-1.48
2022-11-28T03:05:22.107Z,-1.51
2022-11-28T03:08:46.151Z,-1.51
2022-11-28T03:11:59.659Z,-1.52
2022-11-28T03:15:07.451Z,-1.54
2022-11-28T03:18:18.894Z,-1.52
2022-11-28T03:21:27.073Z,-1.50
2022-11-28T03:24:35.965Z,-1.47
2022-11-28T03:27:44.895Z,-1.46
2022-11-28T03:30:51.926Z,-1.45
2022-11-28T03:33:59.433Z,-1.45
2022-11-28T03:37:07.312Z,-1.46
2022-11-28T03:40:16.956Z,-1.48
2022-11-28T03:43:26.766Z,-1.49
2022-11-28T03:46:36.168Z,-1.52
2022-11-28T03:49:43.505Z,-1.54
2022-11-28T03:52:50.570Z,-1.55
2022-11-28T03:56:01.579Z,-1.56
2022-11-28T03:59:10.785Z,-1.58
2022-11-28T04:02:19.878Z,-1.57
2022-11-28T04:05:29.135Z,-1.56
2022-11-28T04:08:38.313Z,-1.54
2022-11-28T04:11:46.189Z,-1.52
2022-11-28T04:14:54.793Z,-1.51
2022-11-28T04:18:02.343Z,-1.53
2022-11-28T04:21:11.291Z,-1.53
2022-11-28T04:24:19.056Z,-1.52
2022-11-28T04:27:28.698Z,-1.50
2022-11-28T04:30:36.823Z,-1.52
2022-11-28T04:33:44.326Z,-1.54
2022-11-28T04:36:50.664Z,-1.57
2022-11-28T04:39:57.253Z,-1.59
2022-11-28T04:43:03.689Z,-1.62
2022-11-28T04:46:11.911Z,-1.65
2022-11-28T04:49:18.755Z,-1.69
2022-11-28T04:52:26.692Z,-1.71
2022-11-28T04:55:36.255Z,-1.74
2022-11-28T04:58:43.555Z,-1.78
2022-11-28T05:01:49.712Z,-1.82
2022-11-28T05:04:55.974Z,-1.87
2022-11-28T05:08:01.352Z,-1.91
2022-11-28T05:11:06.746Z,-1.94
2022-11-28T05:14:12.089Z,-1.95
2022-11-28T05:17:17.619Z,-1.95
2022-11-28T05:20:23.060Z,-1.95
2022-11-28T05:23:28.409Z,-1.96
2022-11-28T05:26:35.399Z,-1.96
2022-11-28T05:29:46.872Z,-1.96
2022-11-28T05:32:56.928Z,-1.95
2022-11-28T05:36:11.250Z,-1.95
2022-11-28T05:39:19.448Z,-1.95
2022-11-28T05:42:25.954Z,-1.94
2022-11-28T05:45:34.008Z,-1.92
2022-11-28T05:48:39.538Z,-1.86
2022-11-28T05:51:44.927Z,-1.81
2022-11-28T05:54:50.285Z,-1.78
2022-11-28T05:57:55.721Z,-1.75
2022-11-28T06:01:03.952Z,-1.72
2022-11-28T06:04:09.386Z,-1.70
2022-11-28T06:07:14.880Z,-1.71
2022-11-28T06:10:22.577Z,-1.74
2022-11-28T06:13:27.992Z,-1.79
2022-11-28T06:16:33.384Z,-1.85
2022-11-28T06:19:39.012Z,-1.90
2022-11-28T06:22:44.366Z,-1.91
2022-11-28T06:25:49.633Z,-1.92
2022-11-28T06:28:56.506Z,-1.92
2022-11-28T06:32:01.865Z,-1.92
2022-11-28T06:35:08.039Z,-1.91
2022-11-28T06:38:14.538Z,-1.89
2022-11-28T06:41:20.766Z,-1.85
2022-11-28T06:44:26.249Z,-1.83
2022-11-28T06:47:31.823Z,-1.79
2022-11-28T06:50:37.138Z,-1.74
2022-11-28T06:53:45.726Z,-1.68
2022-11-28T06:56:51.295Z,-1.61
2022-11-28T06:59:56.774Z,-1.52
2022-11-28T07:03:02.063Z,-1.44
2022-11-28T07:06:07.903Z,-1.35
2022-11-28T07:09:13.576Z,-1.26
2022-11-28T07:12:18.978Z,-1.17
2022-11-28T07:15:24.430Z,-1.11
2022-11-28T07:18:30.070Z,-1.09
2022-11-28T07:21:35.666Z,-1.07
2022-11-28T07:24:41.319Z,-1.03
2022-11-28T07:27:46.703Z,-0.99
2022-11-28T07:30:58.854Z,-0.93
2022-11-28T07:34:04.431Z,-0.87
2022-11-28T07:37:12.062Z,-0.79
2022-11-28T07:40:18.585Z,-0.73
2022-11-28T07:43:24.618Z,-0.68
2022-11-28T07:46:32.599Z,-0.62
2022-11-28T07:49:38.054Z,-0.55
2022-11-28T07:52:43.332Z,-0.48
2022-11-28T07:55:48.742Z,-0.41
2022-11-28T07:58:54.474Z,-0.33
2022-11-28T08:02:01.179Z,-0.24
2022-11-28T08:05:07.211Z,-0.15
2022-11-28T08:08:12.626Z,-0.08
2022-11-28T08:11:19.094Z,-0.00
2022-11-28T08:14:24.605Z,0.06
2022-11-28T08:17:38.412Z,0.12
2022-11-28T08:20:43.729Z,0.19
2022-11-28T08:23:48.918Z,0.25
2022-11-28T08:26:55.730Z,0.31
2022-11-28T08:30:01.042Z,0.38
2022-11-28T08:33:07.588Z,0.46
2022-11-28T08:36:14.468Z,0.52
2022-11-28T08:39:24.860Z,0.58
2022-11-28T08:42:30.596Z,0.68
2022-11-28T08:45:39.756Z,0.78
2022-11-28T08:48:46.109Z,0.85
2022-11-28T08:51:52.854Z,0.91
2022-11-28T08:54:58.121Z,0.97
2022-11-28T08:58:03.407Z,1.03
2022-11-28T09:01:15.875Z,1.09
2022-11-28T09:04:24.995Z,1.17
2022-11-28T09:07:30.734Z,1.25
2022-11-28T09:10:37.956Z,1.34
2022-11-28T09:13:43.580Z,1.41
2022-11-28T09:16:50.590Z,1.48
2022-11-28T09:19:55.898Z,1.53
2022-11-28T09:23:01.329Z,1.57
2022-11-28T09:26:10.381Z,1.60
2022-11-28T09:29:15.550Z,1.65
2022-11-28T09:32:23.660Z,1.70
2022-11-28T09:35:28.968Z,1.75
2022-11-28T09:38:34.563Z,1.77
2022-11-28T09:41:51.803Z,1.81
2022-11-28T09:44:59.663Z,1.84
2022-11-28T09:48:21.040Z,1.89
2022-11-28T09:51:29.390Z,1.94
2022-11-28T09:54:43.033Z,1.98
2022-11-28T09:57:49.904Z,2.03
2022-11-28T10:00:58.957Z,2.08
2022-11-28T10:04:07.678Z,2.14
2022-11-28T10:07:16.786Z,2.19
2022-11-28T10:10:32.624Z,2.24
2022-11-28T10:14:06.770Z,2.30
2022-11-28T10:17:17.464Z,2.40
2022-11-28T10:20:24.449Z,2.49
2022-11-28T10:23:32.211Z,2.58
2022-11-28T10:26:39.801Z,2.66
2022-11-28T10:29:50.222Z,2.72
2022-11-28T10:33:00.280Z,2.79
2022-11-28T10:36:05.986Z,2.85
2022-11-28T10:39:12.947Z,2.88
2022-11-28T10:42:21.696Z,2.90
2022-11-28T10:45:30.332Z,2.90
2022-11-28T10:48:41.478Z,2.89
2022-11-28T10:51:49.923Z,2.91
2022-11-28T10:55:05.329Z,2.93
2022-11-28T10:58:15.212Z,2.98
2022-11-28T11:01:20.954Z,3.05
2022-11-28T11:04:27.845Z,3.12
2022-11-28T11:07:34.423Z,3.19
2022-11-28T11:10:42.670Z,3.23
2022-11-28T11:14:02.046Z,3.27
2022-11-28T11:17:07.629Z,3.29
2022-11-28T11:20:31.118Z,3.36
2022-11-28T11:23:39.562Z,3.44
2022-11-28T11:26:47.125Z,3.50
2022-11-28T11:29:52.499Z,3.57
2022-11-28T11:32:59.942Z,3.67
2022-11-28T11:36:07.279Z,3.73
2022-11-28T11:39:20.856Z,3.78
2022-11-28T11:42:27.182Z,3.85
2022-11-28T11:45:35.342Z,3.91
2022-11-28T11:48:41.780Z,3.95
2022-11-28T11:51:56.649Z,4.04
2022-11-28T11:55:04.885Z,4.20
2022-11-28T11:58:14.110Z,4.35
2022-11-28T12:01:21.619Z,4.46
2022-11-28T12:04:44.992Z,4.54
2022-11-28T12:07:56.628Z,4.59
2022-11-28T12:11:09.523Z,4.59
2022-11-28T12:14:25.617Z,4.62
2022-11-28T12:17:51.483Z,4.68
2022-11-28T12:21:06.892Z,4.75
2022-11-28T12:24:14.277Z,4.81
2022-11-28T12:27:27.507Z,4.81
2022-11-28T12:30:43.457Z,4.73
2022-11-28T12:33:53.718Z,4.58
2022-11-28T12:37:03.812Z,4.45
2022-11-28T12:40:14.564Z,4.40
2022-11-28T12:43:25.202Z,4.39
2022-11-28T12:46:35.329Z,4.40
2022-11-28T12:49:47.823Z,4.49
2022-11-28T12:52:58.144Z,4.61
2022-11-28T12:56:07.943Z,4.61
2022-11-28T12:59:19.920Z,4.53
2022-11-28T13:02:35.128Z,4.43
2022-11-28T13:05:52.549Z,4.35
2022-11-28T13:09:03.480Z,4.32
2022-11-28T13:12:22.395Z,4.38
2022-11-28T13:15:38.535Z,4.49
2022-11-28T13:18:49.918Z,4.61
2022-11-28T13:21:58.813Z,4.71
2022-11-28T13:25:10.875Z,4.74
2022-11-28T13:28:20.540Z,4.73
2022-11-28T13:31:29.228Z,4.63
2022-11-28T13:34:35.607Z,4.51
2022-11-28T13:41:35.171Z,4.41
2022-11-28T13:44:43.625Z,4.42
2022-11-28T13:47:49.464Z,4.44
2022-11-28T13:51:06.655Z,4.44
2022-11-28T13:54:45.440Z,4.43
2022-11-28T13:57:53.424Z,4.40
2022-11-28T14:01:10.086Z,4.36
2022-11-28T14:04:16.647Z,4.26
2022-11-28T14:07:26.730Z,4.17
2022-11-28T14:10:36.365Z,4.05
2022-11-28T14:13:52.494Z,3.95
2022-11-28T14:17:10.424Z,3.82
2022-11-28T14:20:24.560Z,3.70
2022-11-28T14:23:34.991Z,3.54
2022-11-28T14:26:43.159Z,3.38
2022-11-28T14:29:50.428Z,3.23
2022-11-28T14:32:59.487Z,3.08
2022-11-28T14:36:24.754Z,2.89
2022-11-28T14:39:35.367Z,2.70
2022-11-28T14:46:32.148Z,2.39
2022-11-28T14:49:40.473Z,2.26
2022-11-28T14:52:48.002Z,2.14
2022-11-28T14:55:53.599Z,2.00
2022-11-28T14:59:02.291Z,1.87
2022-11-28T15:02:19.326Z,1.76
2022-11-28T15:05:30.395Z,1.64
2022-11-28T15:08:50.159Z,1.52
2022-11-28T15:12:11.553Z,1.42
2022-11-28T15:15:19.233Z,1.31
2022-11-28T15:18:26.077Z,1.23
2022-11-28T15:21:33.329Z,1.15
2022-11-28T15:24:39.456Z,1.08
2022-11-28T15:27:46.262Z,1.01
2022-11-28T15:30:53.828Z,0.94
2022-11-28T15:34:00.361Z,0.87
2022-11-28T15:37:16.961Z,0.81
2022-11-28T15:40:27.557Z,0.74
2022-11-28T15:43:32.992Z,0.69
2022-11-28T15:46:38.565Z,0.65
2022-11-28T15:49:44.297Z,0.62
2022-11-28T15:52:56.763Z,0.61
2022-11-28T15:56:12.741Z,0.58
2022-11-28T15:59:18.300Z,0.55
2022-11-28T16:02:27.650Z,0.51
2022-11-28T16:05:33.542Z,0.46
2022-11-28T16:08:40.595Z,0.42
2022-11-28T16:11:47.375Z,0.40
2022-11-28T16:14:58.706Z,0.39
2022-11-28T16:18:04.148Z,0.39
2022-11-28T16:21:12.559Z,0.38
2022-11-28T16:24:25.237Z,0.38
2022-11-28T16:27:34.856Z,0.38
2022-11-28T16:30:43.551Z,0.39
2022-11-28T16:33:50.364Z,0.40
2022-11-28T16:36:57.086Z,0.40
2022-11-28T16:40:04.729Z,0.38
2022-11-28T16:43:19.963Z,0.35
2022-11-28T16:46:27.189Z,0.33
2022-11-28T16:49:34.855Z,0.31
2022-11-28T16:52:45.723Z,0.29
2022-11-28T16:55:51.164Z,0.30
2022-11-28T16:59:00.115Z,0.30
2022-11-28T17:02:13.396Z,0.30
2022-11-28T17:05:20.306Z,0.30
2022-11-28T17:08:30.280Z,0.32
2022-11-28T17:11:37.325Z,0.35
2022-11-28T17:14:44.115Z,0.38
2022-11-28T17:17:49.639Z,0.39
2022-11-28T17:20:55.238Z,0.43
2022-11-28T17:24:00.903Z,0.45
2022-11-28T17:27:08.731Z,0.49
2022-11-28T17:30:21.439Z,0.51
2022-11-28T17:33:27.187Z,0.52
2022-11-28T17:36:32.775Z,0.53
2022-11-28T17:39:38.379Z,0.54
2022-11-28T17:42:43.767Z,0.56
2022-11-28T17:45:51.293Z,0.57
2022-11-28T17:48:59.178Z,0.60
2022-11-28T17:52:04.639Z,0.63
2022-11-28T17:55:10.441Z,0.68
2022-11-28T17:58:22.182Z,0.71
2022-11-28T18:01:29.920Z,0.78
2022-11-28T18:04:38.293Z,0.84
2022-11-28T18:07:43.768Z,0.89
2022-11-28T18:10:52.103Z,0.94
2022-11-28T18:13:59.006Z,0.98
2022-11-28T18:17:04.560Z,1.03
2022-11-28T18:20:11.298Z,1.07
2022-11-28T18:23:16.894Z,1.12
2022-11-28T18:26:24.050Z,1.16
2022-11-28T18:29:30.796Z,1.18
2022-11-28T18:32:36.604Z,1.20
2022-11-28T18:35:42.816Z,1.22
2022-11-28T18:38:48.314Z,1.25
2022-11-28T18:41:56.546Z,1.27
2022-11-28T18:45:02.036Z,1.30
2022-11-28T18:48:07.807Z,1.33
2022-11-28T18:51:14.555Z,1.36
2022-11-28T18:54:21.543Z,1.39
2022-11-28T18:57:31.500Z,1.41
2022-11-28T19:00:36.872Z,1.44
2022-11-28T19:03:43.224Z,1.46
2022-11-28T19:06:48.766Z,1.49
2022-11-28T19:09:54.536Z,1.51
2022-11-28T19:12:59.805Z,1.54
2022-11-28T19:16:07.586Z,1.57
2022-11-28T19:19:13.115Z,1.59
2022-11-28T19:22:18.380Z,1.60
2022-11-28T19:25:24.001Z,1.64
2022-11-28T19:28:29.831Z,1.66
2022-11-28T19:31:36.666Z,1.68
2022-11-28T19:34:42.674Z,1.70
2022-11-28T19:37:48.395Z,1.71
2022-11-28T19:40:53.878Z,1.72
2022-11-28T19:43:59.621Z,1.74
2022-11-28T19:47:07.009Z,1.74
2022-11-28T19:50:13.003Z,1.75
2022-11-28T19:53:18.673Z,1.74
2022-11-28T19:56:24.186Z,1.73
2022-11-28T19:59:31.393Z,1.74
2022-11-28T20:02:39.057Z,1.73
2022-11-28T20:05:44.677Z,1.74
2022-11-28T20:08:50.563Z,1.75
2022-11-28T20:11:56.056Z,1.77
2022-11-28T20:15:04.910Z,1.79
2022-11-28T20:18:10.422Z,1.80
2022-11-28T20:21:17.320Z,1.79
2022-11-28T20:24:23.031Z,1.79
2022-11-28T20:27:28.738Z,1.79
2022-11-28T20:30:34.114Z,1.78
2022-11-28T20:33:39.443Z,1.76
2022-11-28T20:36:45.028Z,1.74
2022-11-28T20:39:50.686Z,1.73
2022-11-28T20:42:56.177Z,1.71
2022-11-28T20:46:04.838Z,1.69
2022-11-28T20:49:11.169Z,1.67
2022-11-28T20:52:16.410Z,1.66
2022-11-28T20:55:23.139Z,1.63
2022-11-28T20:58:28.490Z,1.63
2022-11-28T21:01:35.350Z,1.59
2022-11-28T21:04:40.933Z,1.53
2022-11-28T21:07:46.293Z,1.46
2022-11-28T21:10:51.867Z,1.37
2022-11-28T21:13:57.133Z,1.31
2022-11-28T21:17:02.518Z,1.25
2022-11-28T21:20:09.620Z,1.21
2022-11-28T21:23:15.600Z,1.16
2022-11-28T21:26:27.393Z,1.11
2022-11-28T21:29:36.245Z,1.06
2022-11-28T21:32:41.722Z,0.98
2022-11-28T21:35:46.990Z,0.92
2022-11-28T21:38:52.681Z,0.86
2022-11-28T21:41:58.086Z,0.81
2022-11-28T21:45:03.680Z,0.76
2022-11-28T21:48:09.203Z,0.72
2022-11-28T21:51:17.571Z,0.70
2022-11-28T21:54:23.091Z,0.69
2022-11-28T21:57:28.529Z,0.69
2022-11-28T22:00:52.804Z,0.70
2022-11-28T22:04:03.243Z,0.73
2022-11-28T22:07:09.849Z,0.77
2022-11-28T22:10:15.197Z,0.80
2022-11-28T22:13:20.539Z,0.82
2022-11-28T22:16:27.293Z,0.85
2022-11-28T22:19:32.861Z,0.90
2022-11-28T22:22:38.454Z,0.95
2022-11-28T22:25:52.518Z,1.00
2022-11-28T22:28:58.928Z,1.06
2022-11-28T22:32:04.531Z,1.11
2022-11-28T22:35:11.061Z,1.16
2022-11-28T22:38:17.903Z,1.20
2022-11-28T22:41:28.293Z,1.24
2022-11-28T22:44:36.955Z,1.28
2022-11-28T22:47:42.418Z,1.32
2022-11-28T22:50:47.882Z,1.34
2022-11-28T22:53:55.387Z,1.38
2022-11-28T22:57:02.675Z,1.40
2022-11-28T23:00:09.815Z,1.42
2022-11-28T23:03:15.408Z,1.44
2022-11-28T23:06:23.615Z,1.48
2022-11-28T23:09:32.963Z,1.52
2022-11-28T23:12:38.600Z,1.56
2022-11-28T23:15:48.442Z,1.59
2022-11-28T23:18:58.131Z,1.62
2022-11-28T23:22:04.805Z,1.65
2022-11-28T23:25:12.578Z,1.65
2022-11-28T23:28:18.115Z,1.65
2022-11-28T23:31:26.317Z,1.65
2022-11-28T23:34:33.142Z,1.66
2022-11-28T23:37:40.430Z,1.68
2022-11-28T23:40:45.983Z,1.70
2022-11-28T23:43:51.507Z,1.72
2022-11-28T23:46:59.419Z,1.72
2022-11-28T23:50:08.388Z,1.74
2022-11-28T23:53:13.888Z,1.76
2022-11-28T23:56:20.505Z,1.77
2022-11-28T23:59:25.871Z,1.79
